Time;durP1;ratioP1;P1;durP2;ratioP2;P2;SDS_P1;SDS_P2;PMS_P1;PMS_P2;Temp;Humidity;BMP_temperature;BMP_pressure;BME280_temperature;BME280_humidity;BME280_pressure;Samples;Min_cycle;Max_cycle;Signal;HPM_P1;HPM_P2
2022/03/10 00:01:28;;;;;;;59.35;29.45;;;7.20;85.80;;;;;;5072891;28;20032;-67
2022/03/10 00:03:54;;;;;;;60.90;30.48;;;7.20;86.10;;;;;;5072713;28;20045;-67
2022/03/10 00:06:20;;;;;;;63.45;30.48;;;7.10;86.50;;;;;;5072822;28;20035;-67
2022/03/10 00:08:45;;;;;;;59.53;29.92;;;7.20;86.10;;;;;;5072438;28;20028;-67
2022/03/10 00:11:11;;;;;;;57.75;29.48;;;7.30;86.40;;;;;;5071337;28;20484;-68
2022/03/10 00:13:37;;;;;;;61.33;29.27;;;7.10;86.80;;;;;;5072732;28;20054;-67
2022/03/10 00:16:03;;;;;;;58.05;30.17;;;7.20;86.90;;;;;;5072894;28;20079;-67
2022/03/10 00:18:29;;;;;;;61.92;30.60;;;7.10;87.20;;;;;;5054686;28;20485;-67
2022/03/10 00:20:54;;;;;;;56.70;29.90;;;7.20;86.80;;;;;;5072662;28;20079;-67
2022/03/10 00:23:20;;;;;;;56.45;29.25;;;7.10;87.00;;;;;;5072375;28;20035;-67
2022/03/10 00:25:46;;;;;;;60.70;28.98;;;7.00;87.90;;;;;;5072519;28;20067;-67
2022/03/10 00:28:11;;;;;;;59.58;28.75;;;7.00;87.70;;;;;;5072506;28;20032;-67
2022/03/10 00:30:37;;;;;;;60.63;30.17;;;7.00;87.70;;;;;;5072466;28;20033;-67
2022/03/10 00:33:03;;;;;;;68.50;29.55;;;7.00;87.30;;;;;;5072802;28;20077;-67
2022/03/10 00:35:30;;;;;;;55.22;28.92;;;6.80;87.20;;;;;;5072513;28;20020;-67
2022/03/10 00:37:57;;;;;;;55.53;27.80;;;7.00;88.00;;;;;;5072775;28;20033;-67
2022/03/10 00:40:25;;;;;;;63.95;31.45;;;7.00;86.90;;;;;;5076382;28;20614;-67
2022/03/10 00:42:51;;;;;;;56.63;28.90;;;7.00;87.50;;;;;;5076529;28;20025;-67
2022/03/10 00:45:17;;;;;;;60.90;30.58;;;6.50;88.10;;;;;;5076376;28;20461;-67
2022/03/10 00:47:44;;;;;;;56.00;26.80;;;6.30;89.20;;;;;;5076158;28;20045;-67
2022/03/10 00:50:10;;;;;;;56.45;28.63;;;6.20;90.10;;;;;;5076404;28;20147;-67
2022/03/10 00:52:45;;;;;;;63.88;30.33;;;6.20;90.60;;;;;;5076481;28;20036;-67
2022/03/10 00:55:13;;;;;;;70.93;27.85;;;6.40;90.40;;;;;;5076162;28;20035;-67
2022/03/10 00:57:39;;;;;;;62.22;28.98;;;6.30;90.20;;;;;;5076070;28;20017;-67
2022/03/10 01:00:06;;;;;;;57.72;29.20;;;6.40;90.10;;;;;;5076080;28;20036;-67
2022/03/10 01:02:35;;;;;;;55.78;27.40;;;6.40;90.10;;;;;;5076155;28;20039;-67
2022/03/10 01:05:02;;;;;;;64.80;28.92;;;6.50;89.80;;;;;;5076090;28;20032;-68
2022/03/10 01:07:28;;;;;;;58.78;28.90;;;6.50;90.00;;;;;;5057883;28;20045;-68
2022/03/10 01:09:53;;;;;;;59.53;28.45;;;6.40;90.20;;;;;;5057982;28;20523;-68
2022/03/10 01:12:19;;;;;;;61.40;29.20;;;6.40;90.50;;;;;;5076056;28;20556;-68
2022/03/10 01:14:45;;;;;;;62.15;29.00;;;6.40;90.50;;;;;;5075798;28;20486;-67
2022/03/10 01:17:11;;;;;;;64.93;28.15;;;6.40;90.90;;;;;;5041371;28;20029;-68
2022/03/10 01:19:37;;;;;;;58.30;29.00;;;6.50;90.40;;;;;;5075684;28;20444;-67
2022/03/10 01:22:03;;;;;;;59.42;27.95;;;6.50;90.50;;;;;;5075410;28;20036;-67
2022/03/10 01:24:29;;;;;;;53.38;28.85;;;6.50;90.50;;;;;;5075609;28;20033;-68
2022/03/10 01:26:55;;;;;;;69.22;29.08;;;6.30;91.00;;;;;;5075442;28;20037;-68
2022/03/10 01:29:20;;;;;;;55.33;28.10;;;6.30;91.00;;;;;;5075638;28;20032;-67
2022/03/10 01:31:46;;;;;;;55.78;28.27;;;6.30;91.10;;;;;;5075467;28;20028;-67
2022/03/10 01:34:13;;;;;;;56.97;28.30;;;6.60;91.00;;;;;;5075790;28;20031;-68
2022/03/10 01:36:40;;;;;;;55.17;27.77;;;6.60;90.70;;;;;;5075070;28;20039;-67
2022/03/10 01:39:06;;;;;;;56.50;28.50;;;6.30;91.30;;;;;;5075423;28;20074;-68
2022/03/10 01:41:33;;;;;;;64.30;28.30;;;6.30;91.50;;;;;;5075552;28;20113;-67
2022/03/10 01:44:00;;;;;;;54.22;27.38;;;6.40;91.20;;;;;;5075494;28;20020;-68
2022/03/10 01:46:27;;;;;;;57.50;27.95;;;6.30;91.30;;;;;;5057391;28;20049;-67
2022/03/10 01:48:53;;;;;;;50.30;25.73;;;6.30;91.40;;;;;;5057140;28;20089;-67
2022/03/10 01:51:20;;;;;;;55.80;26.63;;;6.20;92.30;;;;;;5074912;28;20115;-67
2022/03/10 01:53:48;;;;;;;55.28;27.33;;;6.10;92.20;;;;;;5075042;28;20021;-68
2022/03/10 01:56:15;;;;;;;51.92;27.55;;;6.10;92.80;;;;;;5075187;28;20420;-67
2022/03/10 01:58:41;;;;;;;50.45;27.35;;;6.20;93.10;;;;;;5075175;28;20128;-67
2022/03/10 02:01:09;;;;;;;56.95;27.55;;;6.20;92.70;;;;;;5056966;28;20520;-67
2022/03/10 02:03:35;;;;;;;58.65;28.45;;;6.40;92.40;;;;;;5075047;28;20492;-67
2022/03/10 02:06:00;;;;;;;54.55;27.08;;;6.50;92.60;;;;;;5074529;28;20033;-67
2022/03/10 02:11:12;;;;;;;62.85;28.40;;;6.20;92.60;;;;;;5074760;28;20032;-67
2022/03/10 02:13:37;;;;;;;54.67;28.10;;;6.10;93.10;;;;;;5074581;28;20028;-67
2022/03/10 02:18:48;;;;;;;53.38;27.50;;;6.20;93.20;;;;;;5074510;28;20028;-67
2022/03/10 02:21:14;;;;;;;57.20;28.85;;;6.20;93.40;;;;;;5074230;28;20045;-67
2022/03/10 02:23:40;;;;;;;54.30;28.20;;;6.00;93.50;;;;;;5074644;28;20103;-67
2022/03/10 02:26:08;;;;;;;56.95;29.60;;;6.00;93.90;;;;;;5074281;28;20405;-67
2022/03/10 02:28:35;;;;;;;58.53;28.27;;;6.10;93.90;;;;;;5074232;28;20032;-67
2022/03/10 02:31:01;;;;;;;68.15;28.92;;;6.20;93.50;;;;;;5074484;28;20448;-67
2022/03/10 02:33:26;;;;;;;66.72;28.60;;;6.30;93.50;;;;;;5074429;28;20115;-67
2022/03/10 02:35:52;;;;;;;69.97;30.25;;;5.90;94.00;;;;;;5056292;28;20109;-68
2022/03/10 02:38:19;;;;;;;63.40;29.83;;;6.00;94.40;;;;;;5074380;28;20043;-68
2022/03/10 02:40:46;;;;;;;60.58;28.70;;;5.90;94.30;;;;;;5074429;28;20033;-67
2022/03/10 02:43:11;;;;;;;56.58;29.20;;;5.80;94.70;;;;;;5074036;28;20017;-67
2022/03/10 02:45:37;;;;;;;67.03;31.35;;;6.00;94.90;;;;;;5074197;28;20111;-69
2022/03/10 02:48:03;;;;;;;58.50;29.77;;;6.00;94.20;;;;;;5053727;28;20029;-67
2022/03/10 02:50:29;;;;;;;53.70;26.90;;;5.40;95.00;;;;;;5054047;28;20060;-67
2022/03/10 02:52:55;;;;;;;55.72;28.58;;;4.90;97.20;;;;;;5053753;28;20060;-67
2022/03/10 02:55:21;;;;;;;53.78;27.73;;;5.00;97.90;;;;;;5054146;28;20055;-67
2022/03/10 02:57:48;;;;;;;62.33;28.90;;;5.30;97.90;;;;;;5053883;28;20437;-68
2022/03/10 03:00:15;;;;;;;52.03;28.65;;;5.30;97.50;;;;;;5053688;28;20098;-68
2022/03/10 03:02:41;;;;;;;54.20;28.65;;;5.40;97.40;;;;;;5053288;28;20029;-67
2022/03/10 03:05:08;;;;;;;58.03;27.55;;;5.50;97.30;;;;;;5053811;28;20036;-68
2022/03/10 03:07:34;;;;;;;54.55;28.73;;;5.50;97.20;;;;;;5053596;28;20477;-67
2022/03/10 03:10:01;;;;;;;60.92;29.48;;;5.10;97.80;;;;;;5056092;28;20025;-67
2022/03/10 03:12:26;;;;;;;65.07;28.67;;;5.30;97.60;;;;;;5073676;28;20492;-68
2022/03/10 03:14:54;;;;;;;59.38;29.45;;;5.10;98.00;;;;;;5073376;28;20016;-68
2022/03/10 03:17:20;;;;;;;59.38;28.80;;;5.10;98.20;;;;;;5073153;28;20137;-68
2022/03/10 03:19:45;;;;;;;55.47;28.33;;;5.30;98.10;;;;;;5055699;28;20032;-67
2022/03/10 03:22:11;;;;;;;64.88;30.33;;;5.20;98.40;;;;;;5073231;28;20078;-69
2022/03/10 03:24:37;;;;;;;54.63;28.13;;;5.30;98.10;;;;;;5073482;28;20031;-68
2022/03/10 03:27:03;;;;;;;54.17;27.60;;;5.20;98.90;;;;;;5073135;28;20485;-68
2022/03/10 03:29:29;;;;;;;56.50;27.88;;;5.10;99.60;;;;;;5073141;28;20029;-68
2022/03/10 03:31:55;;;;;;;52.00;28.23;;;5.10;99.90;;;;;;5073110;28;20043;-68
2022/03/10 03:34:21;;;;;;;59.22;28.20;;;5.20;99.90;;;;;;5055172;28;20025;-68
2022/03/10 03:36:46;;;;;;;52.15;27.52;;;5.30;99.90;;;;;;5073317;28;20184;-67
2022/03/10 03:39:13;;;;;;;57.38;27.67;;;5.10;99.90;;;;;;5073079;28;20025;-68
2022/03/10 03:41:40;;;;;;;53.05;26.42;;;5.20;99.90;;;;;;5073224;28;20107;-68
2022/03/10 03:44:06;;;;;;;61.25;28.13;;;5.10;99.90;;;;;;5072989;28;20030;-69
2022/03/10 03:46:33;;;;;;;61.63;28.73;;;5.00;99.90;;;;;;5072764;28;20028;-68
2022/03/10 03:48:59;;;;;;;56.90;28.25;;;4.90;99.90;;;;;;5073020;28;20093;-67
2022/03/10 03:51:25;;;;;;;58.70;28.77;;;4.90;99.90;;;;;;5072715;28;20127;-67
2022/03/10 03:53:50;;;;;;;52.83;27.23;;;5.00;99.90;;;;;;5072980;28;20033;-68
2022/03/10 03:56:17;;;;;;;49.50;26.17;;;5.00;99.90;;;;;;5073126;28;20119;-67
2022/03/10 03:58:43;;;;;;;48.42;26.98;;;5.00;99.90;;;;;;5072791;28;20033;-68
2022/03/10 04:01:08;;;;;;;52.47;27.40;;;5.00;99.90;;;;;;5072725;28;20037;-67
2022/03/10 04:03:35;;;;;;;57.42;27.95;;;5.00;99.90;;;;;;5072772;28;20024;-67
2022/03/10 04:06:00;;;;;;;51.95;26.50;;;5.00;99.90;;;;;;5054979;28;20040;-68
2022/03/10 04:08:26;;;;;;;50.38;26.15;;;5.10;99.90;;;;;;5054832;28;20365;-67
2022/03/10 04:10:53;;;;;;;54.42;27.20;;;5.10;99.90;;;;;;5072812;28;20017;-67
2022/03/10 04:13:22;;;;;;;56.92;27.95;;;5.20;99.90;;;;;;5072486;28;20059;-68
2022/03/10 04:15:52;;;;;;;60.70;28.42;;;5.20;99.90;;;;;;5072597;28;20020;-69
2022/03/10 04:18:18;;;;;;;48.60;26.25;;;5.20;99.90;;;;;;5072633;28;20032;-68
2022/03/10 04:20:45;;;;;;;53.28;27.83;;;5.20;99.90;;;;;;5072561;28;20548;-68
2022/03/10 04:23:12;;;;;;;50.75;26.85;;;5.20;99.90;;;;;;5072944;28;20038;-67
2022/03/10 04:25:38;;;;;;;48.00;25.25;;;5.30;99.90;;;;;;5072475;28;20052;-67
2022/03/10 04:28:04;;;;;;;45.70;25.63;;;5.50;99.90;;;;;;5072864;28;20085;-69
2022/03/10 04:30:32;;;;;;;51.78;26.02;;;5.40;99.90;;;;;;5072354;28;20028;-67
2022/03/10 04:32:59;;;;;;;48.92;26.65;;;5.50;99.90;;;;;;5072709;28;20040;-67
2022/03/10 04:35:25;;;;;;;50.10;27.75;;;5.50;99.90;;;;;;5072184;28;20041;-67
2022/03/10 04:37:52;;;;;;;65.45;28.63;;;5.60;99.90;;;;;;5072650;28;20044;-68
2022/03/10 04:40:19;;;;;;;50.38;25.52;;;5.70;99.90;;;;;;5072573;28;20106;-67
2022/03/10 04:42:46;;;;;;;46.75;25.92;;;5.50;99.90;;;;;;5072587;28;20139;-67
2022/03/10 04:45:12;;;;;;;53.80;27.70;;;5.50;99.90;;;;;;5072228;28;20021;-68
2022/03/10 04:47:38;;;;;;;53.85;28.17;;;5.50;99.90;;;;;;5072211;28;20041;-67
2022/03/10 04:50:06;;;;;;;54.42;26.88;;;5.40;99.90;;;;;;5054555;28;20028;-67
2022/03/10 04:52:32;;;;;;;48.58;25.45;;;5.30;99.90;;;;;;5072764;28;20033;-67
2022/03/10 04:54:58;;;;;;;50.20;27.00;;;5.30;99.90;;;;;;5072449;28;20036;-67
2022/03/10 04:57:23;;;;;;;51.58;27.58;;;5.30;99.90;;;;;;5072240;28;20020;-67
2022/03/10 04:59:49;;;;;;;52.58;26.73;;;5.30;99.90;;;;;;5071823;28;20055;-67
2022/03/10 05:02:16;;;;;;;46.53;25.67;;;5.20;99.90;;;;;;5054365;28;20070;-67
2022/03/10 05:04:41;;;;;;;51.40;28.42;;;5.10;99.90;;;;;;5072067;28;20115;-67
2022/03/10 05:07:07;;;;;;;47.92;26.92;;;5.00;99.90;;;;;;5071921;28;20109;-67
2022/03/10 05:09:33;;;;;;;47.13;26.92;;;5.00;99.90;;;;;;5072117;28;20071;-67
2022/03/10 05:11:59;;;;;;;53.08;27.15;;;4.90;99.90;;;;;;5072241;28;20028;-67
2022/03/10 05:14:25;;;;;;;51.22;27.55;;;4.80;99.90;;;;;;5071976;28;20103;-67
2022/03/10 05:16:51;;;;;;;49.10;26.88;;;4.80;99.90;;;;;;5072128;28;20127;-67
2022/03/10 05:19:17;;;;;;;54.88;26.95;;;4.80;99.90;;;;;;5072135;28;20095;-67
2022/03/10 05:21:43;;;;;;;52.03;28.00;;;4.90;99.90;;;;;;5071901;28;20556;-67
2022/03/10 05:24:09;;;;;;;47.78;26.75;;;4.90;99.90;;;;;;5073044;28;20112;-67
2022/03/10 05:26:37;;;;;;;46.75;25.77;;;4.90;99.90;;;;;;5075361;28;20028;-67
2022/03/10 05:29:03;;;;;;;44.83;25.50;;;4.70;99.90;;;;;;5075389;28;20028;-67
2022/03/10 05:31:29;;;;;;;52.58;27.60;;;4.70;99.90;;;;;;5075461;28;20428;-67
2022/03/10 05:33:54;;;;;;;49.72;27.30;;;4.60;99.90;;;;;;5075556;28;20036;-68
2022/03/10 05:36:20;;;;;;;48.80;27.00;;;4.60;99.90;;;;;;5075430;28;20036;-67
2022/03/10 05:38:46;;;;;;;59.92;27.20;;;4.60;99.90;;;;;;5040669;28;20107;-67
2022/03/10 05:41:12;;;;;;;47.67;27.08;;;4.50;99.90;;;;;;5075416;28;20409;-67
2022/03/10 05:43:38;;;;;;;55.92;28.25;;;4.40;99.90;;;;;;5075243;28;20033;-67
2022/03/10 05:46:04;;;;;;;52.72;28.25;;;4.30;99.90;;;;;;5075182;28;20039;-67
2022/03/10 05:48:30;;;;;;;50.30;27.65;;;4.40;99.90;;;;;;5075276;28;20120;-67
2022/03/10 05:50:56;;;;;;;51.05;28.83;;;4.30;99.90;;;;;;5074928;28;20483;-68
2022/03/10 05:53:22;;;;;;;50.25;27.45;;;4.20;99.90;;;;;;5075256;28;20082;-67
2022/03/10 05:55:48;;;;;;;56.40;28.80;;;4.20;99.90;;;;;;5075399;28;20407;-67
2022/03/10 05:58:13;;;;;;;53.92;27.60;;;4.10;99.90;;;;;;5074867;28;20024;-67
2022/03/10 06:00:39;;;;;;;63.47;29.92;;;4.10;99.90;;;;;;5075040;28;20040;-67
2022/03/10 06:03:06;;;;;;;55.75;29.40;;;4.30;99.90;;;;;;5074965;28;20036;-67
2022/03/10 06:05:33;;;;;;;61.80;29.17;;;4.50;99.90;;;;;;5074828;28;20397;-67
2022/03/10 06:07:59;;;;;;;54.83;28.35;;;4.60;99.90;;;;;;5074998;28;20060;-67
2022/03/10 06:10:25;;;;;;;55.78;28.55;;;4.60;99.90;;;;;;5074715;28;20081;-67
2022/03/10 06:12:51;;;;;;;56.85;28.02;;;4.70;99.90;;;;;;5074509;28;20358;-67
2022/03/10 06:15:18;;;;;;;50.70;28.90;;;4.80;99.90;;;;;;5074824;28;20511;-67
2022/03/10 06:17:44;;;;;;;57.85;29.77;;;4.70;99.90;;;;;;5074478;28;20041;-67
2022/03/10 06:20:11;;;;;;;49.13;27.23;;;4.60;99.90;;;;;;5074704;28;20100;-68
2022/03/10 06:22:37;;;;;;;53.67;27.63;;;4.50;99.90;;;;;;5056402;28;20028;-67
2022/03/10 06:25:04;;;;;;;54.70;28.70;;;4.60;99.90;;;;;;5074425;28;20465;-67
2022/03/10 06:27:30;;;;;;;54.90;28.35;;;4.60;99.90;;;;;;5073876;28;20032;-67
2022/03/10 06:29:56;;;;;;;53.67;29.02;;;4.60;99.90;;;;;;5074447;28;20070;-67
2022/03/10 06:32:24;;;;;;;60.45;29.75;;;4.60;99.90;;;;;;5074162;28;20025;-67
2022/03/10 06:34:56;;;;;;;53.13;27.23;;;4.60;99.90;;;;;;5074534;28;20077;-67
2022/03/10 06:37:22;;;;;;;51.47;27.83;;;4.60;99.90;;;;;;5073542;28;20431;-67
2022/03/10 06:39:47;;;;;;;55.15;27.27;;;4.60;99.90;;;;;;5074395;28;20035;-67
2022/03/10 06:42:15;;;;;;;52.13;27.05;;;4.50;99.90;;;;;;5073871;28;20024;-67
2022/03/10 06:44:40;;;;;;;50.55;28.08;;;4.60;99.90;;;;;;5074357;28;20024;-66
2022/03/10 06:47:12;;;;;;;54.08;28.27;;;4.70;99.90;;;;;;5073676;28;20043;-67
2022/03/10 06:49:39;;;;;;;49.40;27.33;;;4.80;99.90;;;;;;5074171;28;20046;-67
2022/03/10 06:52:06;;;;;;;47.55;27.45;;;4.70;99.90;;;;;;5073831;28;20044;-67
2022/03/10 06:54:32;;;;;;;53.28;27.48;;;4.70;99.90;;;;;;5073852;28;20032;-68
2022/03/10 06:56:58;;;;;;;50.78;27.58;;;4.80;99.90;;;;;;5073779;28;20024;-67
2022/03/10 06:59:24;;;;;;;54.33;27.08;;;4.80;99.90;;;;;;5073909;28;20035;-67
2022/03/10 07:01:50;;;;;;;58.45;26.50;;;4.80;99.90;;;;;;5073608;28;20483;-67
2022/03/10 07:04:16;;;;;;;55.50;28.25;;;5.00;99.90;;;;;;5073526;28;20028;-67
2022/03/10 07:06:41;;;;;;;54.90;27.80;;;5.10;99.90;;;;;;5073706;28;20025;-67
2022/03/10 07:09:07;;;;;;;50.53;27.63;;;5.20;99.90;;;;;;5073374;28;20044;-67
2022/03/10 07:11:33;;;;;;;50.22;26.60;;;5.20;99.90;;;;;;5055738;28;20107;-67
2022/03/10 07:13:59;;;;;;;56.95;27.50;;;5.30;99.90;;;;;;5073405;28;20032;-67
2022/03/10 07:16:25;;;;;;;54.65;27.92;;;5.40;99.90;;;;;;5055783;28;20495;-68
2022/03/10 07:18:51;;;;;;;52.35;26.70;;;5.40;99.90;;;;;;5055516;28;20025;-67
2022/03/10 07:21:20;;;;;;;51.90;26.25;;;5.60;99.90;;;;;;5073180;28;20514;-67
2022/03/10 07:23:47;;;;;;;52.72;28.48;;;5.60;99.90;;;;;;5072748;28;20552;-67
2022/03/10 07:26:14;;;;;;;50.15;26.70;;;5.70;99.90;;;;;;5073239;28;20115;-67
2022/03/10 07:28:40;;;;;;;57.15;27.85;;;5.90;99.90;;;;;;5073048;28;20037;-67
2022/03/10 07:31:06;;;;;;;48.95;27.17;;;5.90;99.90;;;;;;5055268;28;20024;-67
2022/03/10 07:33:32;;;;;;;52.83;26.40;;;6.00;99.90;;;;;;5073046;28;20043;-67
2022/03/10 07:35:58;;;;;;;51.15;27.17;;;6.10;99.90;;;;;;5073087;28;20020;-67
2022/03/10 07:38:24;;;;;;;49.40;27.60;;;6.20;99.90;;;;;;5072750;28;20086;-67
2022/03/10 07:40:50;;;;;;;58.63;26.50;;;6.30;99.90;;;;;;5069933;28;20444;-67
2022/03/10 07:43:17;;;;;;;51.50;27.63;;;6.20;99.90;;;;;;5072399;28;20036;-67
2022/03/10 07:45:44;;;;;;;46.28;25.92;;;6.30;99.90;;;;;;5063144;28;20013;-67
2022/03/10 07:48:10;;;;;;;62.63;28.20;;;6.40;99.90;;;;;;5052142;28;20095;-67
2022/03/10 07:50:36;;;;;;;50.47;27.20;;;6.40;99.90;;;;;;5052394;28;20033;-68
2022/03/10 07:53:02;;;;;;;51.83;26.27;;;6.50;99.90;;;;;;5052150;28;20040;-67
2022/03/10 07:55:27;;;;;;;50.63;27.38;;;6.50;99.90;;;;;;5034354;28;20474;-67
2022/03/10 07:57:53;;;;;;;59.67;27.58;;;6.50;99.90;;;;;;5052592;28;20024;-67
2022/03/10 08:00:19;;;;;;;58.30;28.42;;;6.80;99.90;;;;;;5068594;28;20037;-67
2022/03/10 08:02:45;;;;;;;55.35;26.77;;;7.00;99.90;;;;;;5039065;28;20040;-68
2022/03/10 08:05:11;;;;;;;52.65;27.27;;;7.20;99.90;;;;;;5052624;28;20032;-67
2022/03/10 08:07:37;;;;;;;54.28;27.27;;;7.40;99.90;;;;;;5051914;28;20439;-71
2022/03/10 08:10:04;;;;;;;56.65;27.30;;;7.50;99.90;;;;;;5060929;28;20036;-68
2022/03/10 08:12:32;;;;;;;52.85;26.33;;;7.60;99.90;;;;;;5072400;28;20361;-67
2022/03/10 08:14:58;;;;;;;59.75;26.73;;;7.70;99.90;;;;;;5054256;28;20534;-67
2022/03/10 08:17:25;;;;;;;50.78;25.63;;;7.70;99.90;;;;;;5053883;28;20050;-67
2022/03/10 08:19:51;;;;;;;54.55;26.20;;;7.80;99.90;;;;;;5072216;28;20043;-67
2022/03/10 08:22:20;;;;;;;54.00;27.58;;;8.10;99.90;;;;;;5071927;28;20030;-68
2022/03/10 08:24:46;;;;;;;50.85;26.05;;;8.30;99.90;;;;;;5072325;28;20427;-67
2022/03/10 08:27:14;;;;;;;53.15;25.65;;;8.40;99.90;;;;;;5071561;28;20052;-67
2022/03/10 08:29:41;;;;;;;56.03;25.45;;;8.60;99.90;;;;;;5071937;28;20032;-67
2022/03/10 08:32:07;;;;;;;51.00;26.05;;;8.70;99.90;;;;;;5071925;28;20389;-67
2022/03/10 08:34:33;;;;;;;48.92;26.40;;;8.90;99.90;;;;;;5072128;28;20093;-67
2022/03/10 08:36:59;;;;;;;50.08;24.83;;;9.10;99.90;;;;;;5072004;28;20418;-67
2022/03/10 08:39:25;;;;;;;53.13;27.00;;;9.20;99.90;;;;;;5071657;28;20040;-67
2022/03/10 08:41:51;;;;;;;50.97;25.00;;;9.30;99.80;;;;;;5072147;28;20028;-68
2022/03/10 08:44:19;;;;;;;56.28;27.95;;;9.40;99.90;;;;;;5071918;28;20024;-67
2022/03/10 08:46:45;;;;;;;50.80;26.27;;;9.50;99.90;;;;;;5071965;28;20139;-67
2022/03/10 08:49:11;;;;;;;49.85;24.48;;;9.80;99.50;;;;;;5071986;28;20147;-69
2022/03/10 08:51:37;;;;;;;46.67;26.27;;;9.90;98.40;;;;;;5071598;28;20492;-68
2022/03/10 08:54:03;;;;;;;46.08;25.42;;;9.90;98.60;;;;;;5072106;28;20417;-68
2022/03/10 08:56:28;;;;;;;50.90;26.35;;;10.10;98.40;;;;;;5071869;28;20036;-68
2022/03/10 08:58:54;;;;;;;44.80;25.52;;;10.10;98.40;;;;;;5072246;28;20393;-68
2022/03/10 09:01:20;;;;;;;48.88;26.65;;;10.20;98.10;;;;;;5075511;28;20029;-68
2022/03/10 09:03:46;;;;;;;53.72;25.00;;;10.50;98.10;;;;;;5075005;28;20033;-67
2022/03/10 09:06:13;;;;;;;59.45;25.92;;;10.50;97.20;;;;;;5075076;28;20032;-68
2022/03/10 09:08:39;;;;;;;47.80;24.73;;;10.60;97.40;;;;;;5075487;28;20484;-67
2022/03/10 09:11:06;;;;;;;48.28;25.33;;;10.80;97.50;;;;;;5057282;28;20016;-68
2022/03/10 09:13:32;;;;;;;44.95;26.35;;;11.00;97.30;;;;;;5075509;28;20373;-68
2022/03/10 09:15:58;;;;;;;52.78;25.38;;;11.00;97.30;;;;;;5075474;28;20483;-68
2022/03/10 09:18:24;;;;;;;47.58;25.23;;;11.50;96.90;;;;;;5075234;28;20258;-68
2022/03/10 09:20:50;;;;;;;44.72;24.92;;;11.30;95.90;;;;;;5074981;28;20025;-69
2022/03/10 09:23:16;;;;;;;50.45;24.17;;;11.50;95.40;;;;;;5075205;28;20036;-68
2022/03/10 09:25:42;;;;;;;51.72;25.02;;;11.40;96.00;;;;;;5074359;28;20131;-67
2022/03/10 09:28:07;;;;;;;44.75;25.30;;;11.40;96.00;;;;;;5073818;28;20044;-67
2022/03/10 09:30:33;;;;;;;46.17;24.80;;;11.60;95.50;;;;;;5074827;28;20385;-68
2022/03/10 09:33:01;;;;;;;43.92;23.52;;;11.70;95.60;;;;;;5074819;28;20074;-67
2022/03/10 09:35:27;;;;;;;49.55;23.88;;;11.70;95.30;;;;;;5075220;28;20089;-69
2022/03/10 09:37:52;;;;;;;49.90;25.52;;;11.80;95.40;;;;;;5075220;28;20104;-68
2022/03/10 09:40:19;;;;;;;37.70;22.92;;;11.90;94.90;;;;;;5057487;28;20025;-67
2022/03/10 09:42:48;;;;;;;50.67;25.25;;;12.10;94.60;;;;;;5072919;28;20028;-67
2022/03/10 09:45:16;;;;;;;51.05;24.52;;;12.20;95.10;;;;;;5075265;28;20020;-68
2022/03/10 09:47:44;;;;;;;48.22;24.83;;;12.50;94.70;;;;;;5075163;28;20478;-67
2022/03/10 09:50:18;;;;;;;41.05;23.80;;;12.40;94.30;;;;;;5075003;28;20032;-68
2022/03/10 09:52:45;;;;;;;42.85;23.63;;;12.70;94.40;;;;;;5040324;28;20116;-68
2022/03/10 09:55:12;;;;;;;46.90;23.75;;;13.10;94.40;;;;;;5075296;28;20044;-69
2022/03/10 09:57:40;;;;;;;56.47;23.77;;;13.20;93.40;;;;;;5074865;28;20033;-67
2022/03/10 10:00:07;;;;;;;47.33;24.30;;;13.20;93.80;;;;;;5074944;28;20067;-68
2022/03/10 10:02:32;;;;;;;40.35;23.48;;;13.20;93.40;;;;;;5074989;28;20029;-68
2022/03/10 10:04:58;;;;;;;39.65;22.80;;;13.10;93.90;;;;;;5074597;28;20377;-68
2022/03/10 10:07:27;;;;;;;53.85;23.92;;;13.20;93.90;;;;;;5051876;28;20159;-68
2022/03/10 10:09:55;;;;;;;43.33;23.10;;;13.50;94.10;;;;;;5055977;28;20025;-68
2022/03/10 10:12:29;;;;;;;44.97;22.67;;;13.60;92.90;;;;;;5073337;28;20036;-68
2022/03/10 10:14:57;;;;;;;40.70;21.63;;;13.70;92.90;;;;;;5056851;28;20072;-68
2022/03/10 10:17:28;;;;;;;44.03;22.63;;;13.70;92.60;;;;;;5074259;28;20016;-68
2022/03/10 10:19:57;;;;;;;40.47;21.95;;;13.90;92.80;;;;;;5073727;28;20063;-67
2022/03/10 10:22:24;;;;;;;39.83;20.42;;;13.90;92.80;;;;;;5074387;28;20056;-67
2022/03/10 10:25:02;;;;;;;35.50;18.75;;;14.20;92.40;;;;;;5070989;28;20028;-68
2022/03/10 10:27:33;;;;;;;40.10;20.30;;;14.10;92.30;;;;;;5074091;28;20047;-67
2022/03/10 10:30:03;;;;;;;43.10;19.93;;;14.50;92.40;;;;;;5074602;28;20029;-68
2022/03/10 10:32:34;;;;;;;31.80;19.23;;;14.90;92.20;;;;;;5073750;28;20275;-69
2022/03/10 10:35:20;;;;;;;29.33;18.20;;;14.80;91.80;;;;;;5074225;28;20024;-68
2022/03/10 10:37:51;;;;;;;31.77;19.50;;;14.60;91.70;;;;;;5074101;28;20123;-69
2022/03/10 10:40:27;;;;;;;37.17;21.20;;;15.20;91.80;;;;;;5073079;28;20036;-69
2022/03/10 10:42:54;;;;;;;32.58;19.15;;;15.30;91.90;;;;;;5053963;28;20274;-68
2022/03/10 10:45:27;;;;;;;41.67;19.85;;;15.70;91.50;;;;;;5054188;28;20029;-69
2022/03/10 10:48:08;;;;;;;29.60;17.40;;;15.80;90.80;;;;;;5053477;28;20085;-69
2022/03/10 10:50:40;;;;;;;37.85;18.70;;;16.10;90.60;;;;;;5054044;28;20029;-68
2022/03/10 10:53:07;;;;;;;29.95;18.48;;;15.50;90.40;;;;;;5065773;28;20040;-68
2022/03/10 10:55:37;;;;;;;41.15;18.48;;;15.80;90.60;;;;;;5071304;28;20048;-68
2022/03/10 10:58:13;;;;;;;28.25;18.17;;;15.70;90.80;;;;;;5069487;28;20115;-69
2022/03/10 11:00:47;;;;;;;31.98;17.50;;;16.30;91.00;;;;;;5073647;28;20052;-69
2022/03/10 11:03:24;;;;;;;26.30;16.75;;;16.70;91.00;;;;;;5073152;28;20082;-68
2022/03/10 11:05:51;;;;;;;27.17;17.05;;;16.90;89.10;;;;;;5073544;28;20029;-69
2022/03/10 11:08:25;;;;;;;29.63;18.23;;;16.90;89.40;;;;;;5073233;28;20117;-69
2022/03/10 11:10:52;;;;;;;29.67;16.70;;;16.60;89.30;;;;;;5073456;28;20063;-69
2022/03/10 11:13:19;;;;;;;33.30;19.15;;;16.50;89.60;;;;;;5073296;28;20017;-69
2022/03/10 11:15:45;;;;;;;28.42;16.50;;;16.20;90.00;;;;;;5055089;28;20097;-69
2022/03/10 11:18:13;;;;;;;32.60;18.08;;;16.60;90.40;;;;;;5055020;28;20028;-69
2022/03/10 11:20:48;;;;;;;29.95;16.90;;;16.50;89.20;;;;;;5073248;28;20021;-71
2022/03/10 11:23:29;;;;;;;29.67;16.88;;;17.00;88.60;;;;;;5054951;28;20044;-68
2022/03/10 11:26:04;;;;;;;32.25;16.10;;;17.40;89.50;;;;;;5073133;28;20027;-70
2022/03/10 11:28:31;;;;;;;30.15;17.92;;;17.50;87.10;;;;;;5072453;28;20044;-69
2022/03/10 11:31:00;;;;;;;35.40;17.85;;;16.90;87.80;;;;;;5068814;28;20024;-70
2022/03/10 11:33:31;;;;;;;35.25;16.67;;;17.20;87.30;;;;;;5072865;28;20044;-69
2022/03/10 11:35:58;;;;;;;42.63;17.30;;;17.20;86.80;;;;;;5055308;28;20044;-69
2022/03/10 11:38:50;;;;;;;35.97;16.60;;;17.50;87.60;;;;;;5073002;28;20033;-70
2022/03/10 11:41:16;;;;;;;28.83;17.05;;;17.50;86.10;;;;;;5058368;28;20047;-69
2022/03/10 11:44:00;;;;;;;30.77;16.58;;;17.90;86.20;;;;;;5072959;28;20020;-69
2022/03/10 11:46:30;;;;;;;30.17;16.02;;;18.40;84.80;;;;;;5072376;28;20040;-71
2022/03/10 11:49:14;;;;;;;35.88;15.80;;;17.90;83.90;;;;;;5072636;28;20044;-69
2022/03/10 11:51:44;;;;;;;29.23;17.35;;;17.90;84.60;;;;;;5055035;28;20029;-68
2022/03/10 11:54:11;;;;;;;30.80;16.38;;;18.20;84.40;;;;;;5072753;28;20032;-69
2022/03/10 11:56:43;;;;;;;25.75;16.05;;;17.70;83.40;;;;;;5072953;28;20020;-69
2022/03/10 11:59:44;;;;;;;30.58;16.33;;;17.90;82.30;;;;;;5071955;28;20081;-69
2022/03/10 12:02:32;;;;;;;26.83;17.65;;;18.00;83.00;;;;;;5072811;28;20032;-70
2022/03/10 12:04:58;;;;;;;37.13;17.88;;;18.80;82.10;;;;;;5072431;28;20017;-71
2022/03/10 12:07:31;;;;;;;36.10;18.48;;;19.00;82.90;;;;;;5072553;28;20043;-71
2022/03/10 12:10:08;;;;;;;30.50;19.35;;;19.30;83.10;;;;;;5072421;28;20376;-71
2022/03/10 12:12:42;;;;;;;38.17;17.73;;;20.10;80.50;;;;;;5072805;28;20036;-74
2022/03/10 12:15:23;;;;;;;33.22;18.08;;;20.50;79.50;;;;;;5072211;28;20032;-71
2022/03/10 12:17:55;;;;;;;38.55;16.65;;;20.60;78.80;;;;;;5054751;28;20028;-74
2022/03/10 12:20:41;;;;;;;29.10;17.30;;;20.60;79.00;;;;;;5072517;28;20384;-71
2022/03/10 12:23:12;;;;;;;29.77;17.60;;;19.70;79.10;;;;;;5068070;28;20039;-71
2022/03/10 12:25:45;;;;;;;37.28;17.25;;;19.50;78.60;;;;;;5052563;28;20443;-71
2022/03/10 12:28:20;;;;;;;33.78;18.50;;;19.70;77.90;;;;;;5066335;28;20473;-71
2022/03/10 12:30:47;;;;;;;30.73;18.15;;;19.80;77.90;;;;;;5072464;28;20033;-71
2022/03/10 12:33:13;;;;;;;33.50;18.52;;;19.80;78.10;;;;;;5054561;28;20341;-71
2022/03/10 12:35:41;;;;;;;35.38;17.33;;;19.90;78.20;;;;;;5058122;28;20020;-71
2022/03/10 12:38:09;;;;;;;28.67;17.92;;;21.00;78.10;;;;;;5076496;28;20025;-70
2022/03/10 12:40:37;;;;;;;28.90;17.50;;;20.80;77.10;;;;;;5058582;28;20097;-71